aviador You're here:

LYBT Decoded Metar

BELGRADE BATAJNICA in SERBIA
Report Time2017-09-23 21:30:00
UTC Time2017-09-23 21:46:13
Flight Rules vfr VFR
WindCalm
Visibility9999 m
Phenomena:N/A
Clouds:N/A
Expected CloudBase > 800 ft AGL from Temp-Dew spread
CeilingNone
Temp10°C (ISA -4)
Dew Point08°C (88% RH)
AAT9.6°C
QNH1020 hPa
Density Alt-364 ft
Elevation262 ft
Report Wrong Elevation
Raw Report
METAR LYBT 232130Z 00000KT CAVOK 10/08 Q1020 NOSIG=

Extra information for LYBT:More info

Metar Taf Metar & Taf Last 4 Metars F.Rules Stats Wind Profile Meteogram Temp Stats Airport Information Weather charts Add Link Nearby VenuesMetar ALERT Operation Metar Decoded Social comments